sensor_id;sensor_type;location;lat;lon;timestamp;temperature;humidity
18577;DHT22;9418;52.694;13.294;2023-12-04T00:01:55;-4.80;99.90
18577;DHT22;9418;52.694;13.294;2023-12-04T00:04:22;-4.80;99.90
18577;DHT22;9418;52.694;13.294;2023-12-04T00:06:48;-4.80;99.90
18577;DHT22;9418;52.694;13.294;2023-12-04T00:09:15;-4.90;99.90
18577;DHT22;9418;52.694;13.294;2023-12-04T00:11:40;-4.90;99.90
18577;DHT22;9418;52.694;13.294;2023-12-04T00:14:07;-4.90;99.90
18577;DHT22;9418;52.694;13.294;2023-12-04T00:16:34;-5.00;99.90
18577;DHT22;9418;52.694;13.294;2023-12-04T00:19:02;-5.10;99.90
18577;DHT22;9418;52.694;13.294;2023-12-04T00:21:29;-5.10;99.90
18577;DHT22;9418;52.694;13.294;2023-12-04T00:23:55;-5.20;99.90
18577;DHT22;9418;52.694;13.294;2023-12-04T00:26:22;-5.20;99.90
18577;DHT22;9418;52.694;13.294;2023-12-04T00:28:48;-5.30;99.90
18577;DHT22;9418;52.694;13.294;2023-12-04T00:31:15;-5.30;99.90
18577;DHT22;9418;52.694;13.294;2023-12-04T00:33:42;-5.30;99.90
18577;DHT22;9418;52.694;13.294;2023-12-04T00:36:10;-5.40;99.90
18577;DHT22;9418;52.694;13.294;2023-12-04T00:38:37;-5.40;99.90
18577;DHT22;9418;52.694;13.294;2023-12-04T00:41:04;-5.50;99.90
18577;DHT22;9418;52.694;13.294;2023-12-04T00:43:31;-5.50;99.90
18577;DHT22;9418;52.694;13.294;2023-12-04T00:45:57;-5.50;99.90
18577;DHT22;9418;52.694;13.294;2023-12-04T00:48:24;-5.60;99.90
18577;DHT22;9418;52.694;13.294;2023-12-04T00:50:51;-5.60;99.90
18577;DHT22;9418;52.694;13.294;2023-12-04T00:53:19;-5.60;99.90
18577;DHT22;9418;52.694;13.294;2023-12-04T00:55:45;-5.60;99.90
18577;DHT22;9418;52.694;13.294;2023-12-04T00:58:12;-5.60;99.90
18577;DHT22;9418;52.694;13.294;2023-12-04T01:00:38;-5.70;99.90
18577;DHT22;9418;52.694;13.294;2023-12-04T01:03:05;-5.70;99.90
18577;DHT22;9418;52.694;13.294;2023-12-04T01:05:31;-5.70;99.90
18577;DHT22;9418;52.694;13.294;2023-12-04T01:07:58;-5.70;99.90
18577;DHT22;9418;52.694;13.294;2023-12-04T01:10:26;-5.60;99.90
18577;DHT22;9418;52.694;13.294;2023-12-04T01:12:52;-5.60;99.90
18577;DHT22;9418;52.694;13.294;2023-12-04T01:15:19;-5.60;99.90
18577;DHT22;9418;52.694;13.294;2023-12-04T01:17:46;-5.60;99.90
18577;DHT22;9418;52.694;13.294;2023-12-04T01:20:12;-5.60;99.90
18577;DHT22;9418;52.694;13.294;2023-12-04T01:22:39;-5.60;99.90
18577;DHT22;9418;52.694;13.294;2023-12-04T01:25:06;-5.50;99.90
18577;DHT22;9418;52.694;13.294;2023-12-04T01:27:34;-5.50;99.90
18577;DHT22;9418;52.694;13.294;2023-12-04T01:30:03;-5.50;99.90
18577;DHT22;9418;52.694;13.294;2023-12-04T01:32:30;-5.60;99.90
18577;DHT22;9418;52.694;13.294;2023-12-04T01:34:57;-5.50;99.90
18577;DHT22;9418;52.694;13.294;2023-12-04T01:37:23;-5.60;99.90
18577;DHT22;9418;52.694;13.294;2023-12-04T01:39:50;-5.60;99.90
18577;DHT22;9418;52.694;13.294;2023-12-04T01:42:16;-5.60;99.90
18577;DHT22;9418;52.694;13.294;2023-12-04T01:44:44;-5.60;99.90
18577;DHT22;9418;52.694;13.294;2023-12-04T01:47:11;-5.50;99.90
18577;DHT22;9418;52.694;13.294;2023-12-04T01:49:38;-5.50;99.90
18577;DHT22;9418;52.694;13.294;2023-12-04T01:52:05;-5.40;99.90
18577;DHT22;9418;52.694;13.294;2023-12-04T01:54:32;-5.40;99.90
18577;DHT22;9418;52.694;13.294;2023-12-04T01:56:59;-5.30;99.90
18577;DHT22;9418;52.694;13.294;2023-12-04T01:59:25;-5.30;99.90
18577;DHT22;9418;52.694;13.294;2023-12-04T02:01:54;-5.30;99.90
18577;DHT22;9418;52.694;13.294;2023-12-04T02:04:21;-5.20;99.90
18577;DHT22;9418;52.694;13.294;2023-12-04T02:06:47;-5.10;99.90
18577;DHT22;9418;52.694;13.294;2023-12-04T02:09:14;-5.00;99.90
18577;DHT22;9418;52.694;13.294;2023-12-04T02:11:41;-5.10;99.90
18577;DHT22;9418;52.694;13.294;2023-12-04T02:14:08;-5.10;99.90
18577;DHT22;9418;52.694;13.294;2023-12-04T02:16:38;-5.10;99.90
18577;DHT22;9418;52.694;13.294;2023-12-04T02:19:11;-5.00;99.90
18577;DHT22;9418;52.694;13.294;2023-12-04T02:21:38;-4.90;99.90
18577;DHT22;9418;52.694;13.294;2023-12-04T02:24:06;-4.90;99.90
18577;DHT22;9418;52.694;13.294;2023-12-04T02:26:37;-4.80;99.90
18577;DHT22;9418;52.694;13.294;2023-12-04T02:29:09;-4.80;99.90
18577;DHT22;9418;52.694;13.294;2023-12-04T02:31:39;-4.70;99.90
18577;DHT22;9418;52.694;13.294;2023-12-04T02:34:07;-4.70;99.90
18577;DHT22;9418;52.694;13.294;2023-12-04T02:36:36;-4.70;99.90
18577;DHT22;9418;52.694;13.294;2023-12-04T02:39:06;-4.60;99.90
18577;DHT22;9418;52.694;13.294;2023-12-04T02:41:32;-4.40;99.90
18577;DHT22;9418;52.694;13.294;2023-12-04T02:43:59;-4.40;99.90
18577;DHT22;9418;52.694;13.294;2023-12-04T02:46:25;-4.40;99.90
18577;DHT22;9418;52.694;13.294;2023-12-04T02:48:52;-4.40;99.90
18577;DHT22;9418;52.694;13.294;2023-12-04T02:51:18;-4.40;99.90
18577;DHT22;9418;52.694;13.294;2023-12-04T02:53:45;-4.40;99.90
18577;DHT22;9418;52.694;13.294;2023-12-04T02:56:13;-4.40;99.90
18577;DHT22;9418;52.694;13.294;2023-12-04T02:58:39;-4.30;99.90
18577;DHT22;9418;52.694;13.294;2023-12-04T03:01:06;-4.30;99.90
18577;DHT22;9418;52.694;13.294;2023-12-04T03:03:33;-4.30;99.90
18577;DHT22;9418;52.694;13.294;2023-12-04T03:05:59;-4.20;99.90
18577;DHT22;9418;52.694;13.294;2023-12-04T03:08:26;-4.30;99.90
18577;DHT22;9418;52.694;13.294;2023-12-04T03:10:52;-4.20;99.90
18577;DHT22;9418;52.694;13.294;2023-12-04T03:13:20;-4.20;99.90
18577;DHT22;9418;52.694;13.294;2023-12-04T03:15:47;-4.30;99.90
18577;DHT22;9418;52.694;13.294;2023-12-04T03:18:13;-4.30;99.90
18577;DHT22;9418;52.694;13.294;2023-12-04T03:20:40;-4.40;99.90
18577;DHT22;9418;52.694;13.294;2023-12-04T03:23:06;-4.40;99.90
18577;DHT22;9418;52.694;13.294;2023-12-04T03:25:33;-4.40;99.90
18577;DHT22;9418;52.694;13.294;2023-12-04T03:27:59;-4.40;99.90
18577;DHT22;9418;52.694;13.294;2023-12-04T03:30:27;-4.40;99.90
18577;DHT22;9418;52.694;13.294;2023-12-04T03:32:54;-4.40;99.90
18577;DHT22;9418;52.694;13.294;2023-12-04T03:35:20;-4.40;99.90
18577;DHT22;9418;52.694;13.294;2023-12-04T03:37:47;-4.50;99.90
18577;DHT22;9418;52.694;13.294;2023-12-04T03:40:15;-4.40;99.90
18577;DHT22;9418;52.694;13.294;2023-12-04T03:42:41;-4.40;99.90
18577;DHT22;9418;52.694;13.294;2023-12-04T03:45:09;-4.40;99.90
18577;DHT22;9418;52.694;13.294;2023-12-04T03:47:37;-4.40;99.90
18577;DHT22;9418;52.694;13.294;2023-12-04T03:50:04;-4.40;99.90
18577;DHT22;9418;52.694;13.294;2023-12-04T03:52:31;-4.40;99.90
18577;DHT22;9418;52.694;13.294;2023-12-04T03:54:58;-4.30;99.90
18577;DHT22;9418;52.694;13.294;2023-12-04T03:57:24;-4.30;99.90
18577;DHT22;9418;52.694;13.294;2023-12-04T03:59:51;-4.30;99.90
18577;DHT22;9418;52.694;13.294;2023-12-04T04:02:17;-4.30;99.90
18577;DHT22;9418;52.694;13.294;2023-12-04T04:04:45;-4.10;99.90
18577;DHT22;9418;52.694;13.294;2023-12-04T04:07:13;-4.10;99.90
18577;DHT22;9418;52.694;13.294;2023-12-04T04:09:40;-4.10;99.90
18577;DHT22;9418;52.694;13.294;2023-12-04T04:12:07;-4.10;99.90
18577;DHT22;9418;52.694;13.294;2023-12-04T04:14:33;-4.10;99.90
18577;DHT22;9418;52.694;13.294;2023-12-04T04:17:00;-4.00;99.90
18577;DHT22;9418;52.694;13.294;2023-12-04T04:19:26;-4.10;99.90
18577;DHT22;9418;52.694;13.294;2023-12-04T04:21:54;-4.00;99.90
18577;DHT22;9418;52.694;13.294;2023-12-04T04:24:21;-4.00;99.90
18577;DHT22;9418;52.694;13.294;2023-12-04T04:26:47;-4.00;99.90
18577;DHT22;9418;52.694;13.294;2023-12-04T04:29:14;-4.00;99.90
18577;DHT22;9418;52.694;13.294;2023-12-04T04:31:41;-4.00;99.90
18577;DHT22;9418;52.694;13.294;2023-12-04T04:34:07;-4.00;99.90
18577;DHT22;9418;52.694;13.294;2023-12-04T04:36:34;-4.00;99.90
18577;DHT22;9418;52.694;13.294;2023-12-04T04:39:03;-4.00;99.90
18577;DHT22;9418;52.694;13.294;2023-12-04T04:41:30;-4.00;99.90
18577;DHT22;9418;52.694;13.294;2023-12-04T04:43:57;-4.10;99.90
18577;DHT22;9418;52.694;13.294;2023-12-04T04:46:23;-4.10;99.90
18577;DHT22;9418;52.694;13.294;2023-12-04T04:48:51;-4.10;99.90
18577;DHT22;9418;52.694;13.294;2023-12-04T04:51:18;-4.10;99.90
18577;DHT22;9418;52.694;13.294;2023-12-04T04:53:45;-4.20;99.90
18577;DHT22;9418;52.694;13.294;2023-12-04T04:56:13;-4.20;99.90
18577;DHT22;9418;52.694;13.294;2023-12-04T04:58:39;-4.20;99.90
18577;DHT22;9418;52.694;13.294;2023-12-04T05:01:07;-4.30;99.90
18577;DHT22;9418;52.694;13.294;2023-12-04T05:03:34;-4.30;99.90
18577;DHT22;9418;52.694;13.294;2023-12-04T05:06:00;-4.30;99.90
18577;DHT22;9418;52.694;13.294;2023-12-04T05:08:27;-4.30;99.90
18577;DHT22;9418;52.694;13.294;2023-12-04T05:10:53;-4.40;99.90
18577;DHT22;9418;52.694;13.294;2023-12-04T05:13:21;-4.40;99.90
18577;DHT22;9418;52.694;13.294;2023-12-04T05:15:48;-4.40;99.90
18577;DHT22;9418;52.694;13.294;2023-12-04T05:18:14;-4.50;99.90
18577;DHT22;9418;52.694;13.294;2023-12-04T05:20:41;-4.50;99.90
18577;DHT22;9418;52.694;13.294;2023-12-04T05:23:08;-4.60;99.90
18577;DHT22;9418;52.694;13.294;2023-12-04T05:25:34;-4.60;99.90
18577;DHT22;9418;52.694;13.294;2023-12-04T05:28:01;-4.60;99.90
18577;DHT22;9418;52.694;13.294;2023-12-04T05:30:29;-4.70;99.90
18577;DHT22;9418;52.694;13.294;2023-12-04T05:32:56;-4.70;99.90
18577;DHT22;9418;52.694;13.294;2023-12-04T05:35:22;-4.70;99.90
18577;DHT22;9418;52.694;13.294;2023-12-04T05:37:49;-4.70;99.90
18577;DHT22;9418;52.694;13.294;2023-12-04T05:40:16;-4.70;99.90
18577;DHT22;9418;52.694;13.294;2023-12-04T05:42:43;-4.70;99.90
18577;DHT22;9418;52.694;13.294;2023-12-04T05:45:09;-4.70;99.90
18577;DHT22;9418;52.694;13.294;2023-12-04T05:47:37;-4.70;99.90
18577;DHT22;9418;52.694;13.294;2023-12-04T05:50:05;-4.70;99.90
18577;DHT22;9418;52.694;13.294;2023-12-04T05:52:32;-4.80;99.90
18577;DHT22;9418;52.694;13.294;2023-12-04T05:54:59;-4.80;99.90
18577;DHT22;9418;52.694;13.294;2023-12-04T05:57:25;-4.80;99.90
18577;DHT22;9418;52.694;13.294;2023-12-04T05:59:52;-4.80;99.90
18577;DHT22;9418;52.694;13.294;2023-12-04T06:02:18;-4.80;99.90
18577;DHT22;9418;52.694;13.294;2023-12-04T06:04:47;-4.80;99.90
18577;DHT22;9418;52.694;13.294;2023-12-04T06:07:14;-4.80;99.90
18577;DHT22;9418;52.694;13.294;2023-12-04T06:09:41;-4.80;99.90
18577;DHT22;9418;52.694;13.294;2023-12-04T06:12:08;-4.70;99.90
18577;DHT22;9418;52.694;13.294;2023-12-04T06:14:35;-4.70;99.90
18577;DHT22;9418;52.694;13.294;2023-12-04T06:17:01;-4.60;99.90
18577;DHT22;9418;52.694;13.294;2023-12-04T06:19:28;-4.50;99.90
18577;DHT22;9418;52.694;13.294;2023-12-04T06:21:56;-4.40;99.90
18577;DHT22;9418;52.694;13.294;2023-12-04T06:24:24;-4.40;99.90
18577;DHT22;9418;52.694;13.294;2023-12-04T06:26:51;-4.30;99.90
18577;DHT22;9418;52.694;13.294;2023-12-04T06:29:19;-4.20;99.90
18577;DHT22;9418;52.694;13.294;2023-12-04T06:31:46;-4.20;99.90
18577;DHT22;9418;52.694;13.294;2023-12-04T06:34:13;-4.10;99.90
18577;DHT22;9418;52.694;13.294;2023-12-04T06:36:40;-4.10;99.90
18577;DHT22;9418;52.694;13.294;2023-12-04T06:39:10;-4.10;99.90
18577;DHT22;9418;52.694;13.294;2023-12-04T06:41:38;-4.10;99.90
18577;DHT22;9418;52.694;13.294;2023-12-04T06:44:05;-4.10;99.90
18577;DHT22;9418;52.694;13.294;2023-12-04T06:46:35;-4.10;99.90
18577;DHT22;9418;52.694;13.294;2023-12-04T06:49:04;-4.00;99.90
18577;DHT22;9418;52.694;13.294;2023-12-04T06:51:31;-3.90;99.90
18577;DHT22;9418;52.694;13.294;2023-12-04T06:53:58;-3.90;99.90
18577;DHT22;9418;52.694;13.294;2023-12-04T06:56:26;-3.80;99.90
18577;DHT22;9418;52.694;13.294;2023-12-04T06:58:53;-3.90;99.90
18577;DHT22;9418;52.694;13.294;2023-12-04T07:01:19;-3.90;99.90
18577;DHT22;9418;52.694;13.294;2023-12-04T07:03:47;-3.80;99.90
18577;DHT22;9418;52.694;13.294;2023-12-04T07:06:13;-3.80;99.90
18577;DHT22;9418;52.694;13.294;2023-12-04T07:08:40;-3.80;99.90
18577;DHT22;9418;52.694;13.294;2023-12-04T07:11:07;-3.70;99.90
18577;DHT22;9418;52.694;13.294;2023-12-04T07:13:35;-3.70;99.90
18577;DHT22;9418;52.694;13.294;2023-12-04T07:16:01;-3.70;99.90
18577;DHT22;9418;52.694;13.294;2023-12-04T07:18:28;-3.70;99.90
18577;DHT22;9418;52.694;13.294;2023-12-04T07:20:55;-3.60;99.90
18577;DHT22;9418;52.694;13.294;2023-12-04T07:23:21;-3.70;99.90
18577;DHT22;9418;52.694;13.294;2023-12-04T07:25:48;-3.60;99.90
18577;DHT22;9418;52.694;13.294;2023-12-04T07:28:17;-3.60;99.90
18577;DHT22;9418;52.694;13.294;2023-12-04T07:30:45;-3.60;99.90
18577;DHT22;9418;52.694;13.294;2023-12-04T07:33:11;-3.60;99.90
18577;DHT22;9418;52.694;13.294;2023-12-04T07:35:38;-3.60;99.90
18577;DHT22;9418;52.694;13.294;2023-12-04T07:38:05;-3.50;99.90
18577;DHT22;9418;52.694;13.294;2023-12-04T07:40:32;-3.50;99.90
18577;DHT22;9418;52.694;13.294;2023-12-04T07:42:58;-3.40;99.90
18577;DHT22;9418;52.694;13.294;2023-12-04T07:45:25;-3.40;99.90
18577;DHT22;9418;52.694;13.294;2023-12-04T07:47:53;-3.40;99.90
18577;DHT22;9418;52.694;13.294;2023-12-04T07:50:20;-3.40;99.90
18577;DHT22;9418;52.694;13.294;2023-12-04T07:52:46;-3.40;99.90
18577;DHT22;9418;52.694;13.294;2023-12-04T07:55:14;-3.50;99.90
18577;DHT22;9418;52.694;13.294;2023-12-04T07:57:41;-3.30;99.90
18577;DHT22;9418;52.694;13.294;2023-12-04T08:00:08;-3.30;99.90
18577;DHT22;9418;52.694;13.294;2023-12-04T08:02:34;-3.20;99.90
18577;DHT22;9418;52.694;13.294;2023-12-04T08:05:03;-3.20;99.90
18577;DHT22;9418;52.694;13.294;2023-12-04T08:07:29;-3.20;99.90
18577;DHT22;9418;52.694;13.294;2023-12-04T08:09:56;-3.20;99.90
18577;DHT22;9418;52.694;13.294;2023-12-04T08:12:23;-3.20;99.90
18577;DHT22;9418;52.694;13.294;2023-12-04T08:14:49;-3.10;99.90
18577;DHT22;9418;52.694;13.294;2023-12-04T08:17:16;-3.10;99.90
18577;DHT22;9418;52.694;13.294;2023-12-04T08:19:43;-3.10;99.90
18577;DHT22;9418;52.694;13.294;2023-12-04T08:22:11;-3.10;99.90
18577;DHT22;9418;52.694;13.294;2023-12-04T08:24:38;-3.10;99.90
18577;DHT22;9418;52.694;13.294;2023-12-04T08:27:05;-3.10;99.90
18577;DHT22;9418;52.694;13.294;2023-12-04T08:29:31;-3.10;1.40
18577;DHT22;9418;52.694;13.294;2023-12-04T08:31:58;-3.00;99.90
18577;DHT22;9418;52.694;13.294;2023-12-04T08:34:24;-3.00;99.90
18577;DHT22;9418;52.694;13.294;2023-12-04T08:36:51;-2.90;99.90
18577;DHT22;9418;52.694;13.294;2023-12-04T08:39:19;-2.80;99.90
18577;DHT22;9418;52.694;13.294;2023-12-04T08:41:46;-2.80;99.90
18577;DHT22;9418;52.694;13.294;2023-12-04T08:44:12;-2.70;99.90
18577;DHT22;9418;52.694;13.294;2023-12-04T08:46:39;-2.70;99.90
18577;DHT22;9418;52.694;13.294;2023-12-04T08:49:06;-2.70;99.90
18577;DHT22;9418;52.694;13.294;2023-12-04T08:51:32;-2.80;99.90
18577;DHT22;9418;52.694;13.294;2023-12-04T08:53:59;-2.70;99.90
18577;DHT22;9418;52.694;13.294;2023-12-04T08:56:27;-2.70;99.90
18577;DHT22;9418;52.694;13.294;2023-12-04T08:58:53;-2.60;99.90
18577;DHT22;9418;52.694;13.294;2023-12-04T09:01:20;-2.60;99.90
18577;DHT22;9418;52.694;13.294;2023-12-04T09:03:46;-2.60;99.90
18577;DHT22;9418;52.694;13.294;2023-12-04T09:06:13;-2.70;99.90
18577;DHT22;9418;52.694;13.294;2023-12-04T09:08:40;-2.70;1.40
18577;DHT22;9418;52.694;13.294;2023-12-04T09:11:06;-2.60;99.90
18577;DHT22;9418;52.694;13.294;2023-12-04T09:13:34;-2.60;1.40
18577;DHT22;9418;52.694;13.294;2023-12-04T09:16:01;-2.50;99.90
18577;DHT22;9418;52.694;13.294;2023-12-04T09:18:28;-2.50;99.90
18577;DHT22;9418;52.694;13.294;2023-12-04T09:20:55;-2.60;99.90
18577;DHT22;9418;52.694;13.294;2023-12-04T09:23:21;-2.40;99.90
18577;DHT22;9418;52.694;13.294;2023-12-04T09:25:48;-2.40;99.90
18577;DHT22;9418;52.694;13.294;2023-12-04T09:28:14;-2.50;99.90
18577;DHT22;9418;52.694;13.294;2023-12-04T09:30:43;-2.40;99.90
18577;DHT22;9418;52.694;13.294;2023-12-04T09:33:09;-2.30;99.90
18577;DHT22;9418;52.694;13.294;2023-12-04T09:35:36;-2.30;99.90
18577;DHT22;9418;52.694;13.294;2023-12-04T09:38:02;-2.30;99.90
18577;DHT22;9418;52.694;13.294;2023-12-04T09:40:29;-2.30;99.90
18577;DHT22;9418;52.694;13.294;2023-12-04T09:42:56;-2.30;99.90
18577;DHT22;9418;52.694;13.294;2023-12-04T09:45:24;-2.10;99.90
18577;DHT22;9418;52.694;13.294;2023-12-04T09:47:53;-2.10;99.90
18577;DHT22;9418;52.694;13.294;2023-12-04T09:50:20;-2.20;99.90
18577;DHT22;9418;52.694;13.294;2023-12-04T09:52:48;-2.20;99.90
18577;DHT22;9418;52.694;13.294;2023-12-04T09:55:15;-2.00;99.90
18577;DHT22;9418;52.694;13.294;2023-12-04T09:57:42;-2.10;99.90
18577;DHT22;9418;52.694;13.294;2023-12-04T10:00:10;-1.90;99.90
18577;DHT22;9418;52.694;13.294;2023-12-04T10:02:38;-2.00;99.90
18577;DHT22;9418;52.694;13.294;2023-12-04T10:05:07;-1.90;99.90
18577;DHT22;9418;52.694;13.294;2023-12-04T10:07:34;-1.80;99.90
18577;DHT22;9418;52.694;13.294;2023-12-04T10:10:01;-1.80;99.90
18577;DHT22;9418;52.694;13.294;2023-12-04T10:12:30;-1.70;99.90
18577;DHT22;9418;52.694;13.294;2023-12-04T10:15:05;-1.60;99.90
18577;DHT22;9418;52.694;13.294;2023-12-04T10:17:34;-1.60;99.90
18577;DHT22;9418;52.694;13.294;2023-12-04T10:20:08;-1.60;99.90
18577;DHT22;9418;52.694;13.294;2023-12-04T10:22:39;-1.50;99.90
18577;DHT22;9418;52.694;13.294;2023-12-04T10:25:14;-1.50;99.90
18577;DHT22;9418;52.694;13.294;2023-12-04T10:27:41;-1.50;99.90
18577;DHT22;9418;52.694;13.294;2023-12-04T10:30:10;-1.40;99.90
18577;DHT22;9418;52.694;13.294;2023-12-04T10:32:39;-1.40;99.90
18577;DHT22;9418;52.694;13.294;2023-12-04T10:35:08;-1.40;99.90
18577;DHT22;9418;52.694;13.294;2023-12-04T10:37:36;-1.30;99.90
18577;DHT22;9418;52.694;13.294;2023-12-04T10:40:04;-1.20;99.90
18577;DHT22;9418;52.694;13.294;2023-12-04T10:42:34;-1.30;99.90
18577;DHT22;9418;52.694;13.294;2023-12-04T10:45:01;-1.20;99.90
18577;DHT22;9418;52.694;13.294;2023-12-04T10:47:29;-1.00;99.90
18577;DHT22;9418;52.694;13.294;2023-12-04T10:49:57;-1.00;99.90
18577;DHT22;9418;52.694;13.294;2023-12-04T10:52:26;-1.20;99.90
18577;DHT22;9418;52.694;13.294;2023-12-04T10:54:53;-1.10;99.90
18577;DHT22;9418;52.694;13.294;2023-12-04T10:57:22;-1.00;99.90
18577;DHT22;9418;52.694;13.294;2023-12-04T10:59:56;-0.90;99.90
18577;DHT22;9418;52.694;13.294;2023-12-04T11:02:26;-0.90;99.90
18577;DHT22;9418;52.694;13.294;2023-12-04T11:04:58;-1.00;99.90
18577;DHT22;9418;52.694;13.294;2023-12-04T11:07:30;-0.80;99.90
18577;DHT22;9418;52.694;13.294;2023-12-04T11:10:00;-0.90;99.90
18577;DHT22;9418;52.694;13.294;2023-12-04T11:12:29;-0.80;99.90
18577;DHT22;9418;52.694;13.294;2023-12-04T11:14:58;-0.70;99.90
18577;DHT22;9418;52.694;13.294;2023-12-04T11:17:26;-0.70;99.90
18577;DHT22;9418;52.694;13.294;2023-12-04T11:19:58;-0.60;99.90
18577;DHT22;9418;52.694;13.294;2023-12-04T11:22:28;-0.50;99.90
18577;DHT22;9418;52.694;13.294;2023-12-04T11:24:55;-0.50;99.90
18577;DHT22;9418;52.694;13.294;2023-12-04T11:27:23;-0.50;99.90
18577;DHT22;9418;52.694;13.294;2023-12-04T11:29:50;-0.40;99.90
18577;DHT22;9418;52.694;13.294;2023-12-04T11:32:17;-0.60;99.90
18577;DHT22;9418;52.694;13.294;2023-12-04T11:34:55;-0.60;99.90
18577;DHT22;9418;52.694;13.294;2023-12-04T11:37:22;-0.60;99.90
18577;DHT22;9418;52.694;13.294;2023-12-04T11:39:51;-0.50;99.90
18577;DHT22;9418;52.694;13.294;2023-12-04T11:42:23;-0.70;99.90
18577;DHT22;9418;52.694;13.294;2023-12-04T11:44:53;-0.60;99.90
18577;DHT22;9418;52.694;13.294;2023-12-04T11:47:21;-0.60;99.90
18577;DHT22;9418;52.694;13.294;2023-12-04T11:49:48;-0.70;99.90
18577;DHT22;9418;52.694;13.294;2023-12-04T11:52:15;-0.60;99.90
18577;DHT22;9418;52.694;13.294;2023-12-04T11:55:07;-0.60;99.90
18577;DHT22;9418;52.694;13.294;2023-12-04T11:57:34;-0.50;99.90
18577;DHT22;9418;52.694;13.294;2023-12-04T12:00:13;-0.40;99.90
18577;DHT22;9418;52.694;13.294;2023-12-04T12:02:47;-0.40;99.90
18577;DHT22;9418;52.694;13.294;2023-12-04T12:05:14;-0.30;99.90
18577;DHT22;9418;52.694;13.294;2023-12-04T12:07:40;-0.20;99.90
18577;DHT22;9418;52.694;13.294;2023-12-04T12:10:10;-0.20;99.90
18577;DHT22;9418;52.694;13.294;2023-12-04T12:12:39;-0.20;99.90
18577;DHT22;9418;52.694;13.294;2023-12-04T12:15:08;-0.30;99.90
18577;DHT22;9418;52.694;13.294;2023-12-04T12:17:35;-0.30;99.90
18577;DHT22;9418;52.694;13.294;2023-12-04T12:20:01;-0.40;99.90
18577;DHT22;9418;52.694;13.294;2023-12-04T12:22:32;-0.40;99.90
18577;DHT22;9418;52.694;13.294;2023-12-04T12:24:58;-0.40;99.90
18577;DHT22;9418;52.694;13.294;2023-12-04T12:27:27;-0.50;99.90
18577;DHT22;9418;52.694;13.294;2023-12-04T12:29:53;-0.40;99.90
18577;DHT22;9418;52.694;13.294;2023-12-04T12:32:20;-0.50;99.90
18577;DHT22;9418;52.694;13.294;2023-12-04T12:34:47;-0.50;99.90
18577;DHT22;9418;52.694;13.294;2023-12-04T12:37:14;-0.50;99.90
18577;DHT22;9418;52.694;13.294;2023-12-04T12:39:41;-0.60;99.90
18577;DHT22;9418;52.694;13.294;2023-12-04T12:42:07;-0.50;99.90
18577;DHT22;9418;52.694;13.294;2023-12-04T12:44:39;-0.60;99.90
18577;DHT22;9418;52.694;13.294;2023-12-04T12:47:06;-0.60;99.90
18577;DHT22;9418;52.694;13.294;2023-12-04T12:49:33;-0.50;99.90
18577;DHT22;9418;52.694;13.294;2023-12-04T12:52:01;-0.50;99.90
18577;DHT22;9418;52.694;13.294;2023-12-04T12:54:28;-0.50;99.90
18577;DHT22;9418;52.694;13.294;2023-12-04T12:56:58;-0.60;99.90
18577;DHT22;9418;52.694;13.294;2023-12-04T12:59:24;-0.60;99.90
18577;DHT22;9418;52.694;13.294;2023-12-04T13:01:53;-0.60;99.90
18577;DHT22;9418;52.694;13.294;2023-12-04T13:04:22;-0.70;99.90
18577;DHT22;9418;52.694;13.294;2023-12-04T13:06:49;-0.60;99.90
18577;DHT22;9418;52.694;13.294;2023-12-04T13:09:15;-0.70;99.90
18577;DHT22;9418;52.694;13.294;2023-12-04T13:11:44;-0.70;99.90
18577;DHT22;9418;52.694;13.294;2023-12-04T13:14:10;-0.70;99.90
18577;DHT22;9418;52.694;13.294;2023-12-04T13:16:37;-0.70;99.90
18577;DHT22;9418;52.694;13.294;2023-12-04T13:19:05;-0.70;99.90
18577;DHT22;9418;52.694;13.294;2023-12-04T13:21:31;-0.70;99.90
18577;DHT22;9418;52.694;13.294;2023-12-04T13:23:58;-0.60;99.90
18577;DHT22;9418;52.694;13.294;2023-12-04T13:26:25;-0.60;99.90
18577;DHT22;9418;52.694;13.294;2023-12-04T13:28:52;-0.60;99.90
18577;DHT22;9418;52.694;13.294;2023-12-04T13:31:19;-0.60;99.90
18577;DHT22;9418;52.694;13.294;2023-12-04T13:33:46;-0.60;99.90
18577;DHT22;9418;52.694;13.294;2023-12-04T13:36:14;-0.60;99.90
18577;DHT22;9418;52.694;13.294;2023-12-04T13:38:40;-0.70;99.90
18577;DHT22;9418;52.694;13.294;2023-12-04T13:41:07;-0.70;99.90
18577;DHT22;9418;52.694;13.294;2023-12-04T13:44:05;-0.70;99.90
18577;DHT22;9418;52.694;13.294;2023-12-04T13:46:31;-0.80;99.90
18577;DHT22;9418;52.694;13.294;2023-12-04T13:48:58;-0.80;99.90
18577;DHT22;9418;52.694;13.294;2023-12-04T13:51:26;-0.80;99.90
18577;DHT22;9418;52.694;13.294;2023-12-04T13:53:53;-0.80;99.90
18577;DHT22;9418;52.694;13.294;2023-12-04T13:56:26;-0.80;99.90
18577;DHT22;9418;52.694;13.294;2023-12-04T13:59:07;-0.70;99.90
18577;DHT22;9418;52.694;13.294;2023-12-04T14:01:42;-0.70;99.90
18577;DHT22;9418;52.694;13.294;2023-12-04T14:04:09;-0.80;99.90
18577;DHT22;9418;52.694;13.294;2023-12-04T14:06:36;-0.80;99.90
18577;DHT22;9418;52.694;13.294;2023-12-04T14:09:03;-0.80;99.90
18577;DHT22;9418;52.694;13.294;2023-12-04T14:11:34;-0.90;99.90
18577;DHT22;9418;52.694;13.294;2023-12-04T14:14:01;-0.90;99.90
18577;DHT22;9418;52.694;13.294;2023-12-04T14:16:28;-0.90;99.90
18577;DHT22;9418;52.694;13.294;2023-12-04T14:18:54;-0.90;99.90
18577;DHT22;9418;52.694;13.294;2023-12-04T14:21:21;-0.90;99.90
18577;DHT22;9418;52.694;13.294;2023-12-04T14:23:49;-1.00;99.90
18577;DHT22;9418;52.694;13.294;2023-12-04T14:26:15;-1.00;99.90
18577;DHT22;9418;52.694;13.294;2023-12-04T14:28:42;-1.10;99.90
18577;DHT22;9418;52.694;13.294;2023-12-04T14:31:09;-1.10;99.90
18577;DHT22;9418;52.694;13.294;2023-12-04T14:33:35;-1.10;99.90
18577;DHT22;9418;52.694;13.294;2023-12-04T14:36:04;-1.10;99.90
18577;DHT22;9418;52.694;13.294;2023-12-04T14:38:31;-1.10;99.90
18577;DHT22;9418;52.694;13.294;2023-12-04T14:40:59;-1.10;99.90
18577;DHT22;9418;52.694;13.294;2023-12-04T14:43:26;-1.20;99.90
18577;DHT22;9418;52.694;13.294;2023-12-04T14:45:53;-1.20;99.90
18577;DHT22;9418;52.694;13.294;2023-12-04T14:48:19;-1.20;99.90
18577;DHT22;9418;52.694;13.294;2023-12-04T14:50:46;-1.20;99.90
18577;DHT22;9418;52.694;13.294;2023-12-04T14:53:13;-1.20;99.90
18577;DHT22;9418;52.694;13.294;2023-12-04T14:55:53;-1.30;99.90
18577;DHT22;9418;52.694;13.294;2023-12-04T14:58:53;-1.30;99.90
18577;DHT22;9418;52.694;13.294;2023-12-04T15:01:37;-1.30;99.90
18577;DHT22;9418;52.694;13.294;2023-12-04T15:04:22;-1.30;99.90
18577;DHT22;9418;52.694;13.294;2023-12-04T15:07:06;-1.30;99.90
18577;DHT22;9418;52.694;13.294;2023-12-04T15:09:50;-1.30;99.90
18577;DHT22;9418;52.694;13.294;2023-12-04T15:12:34;-1.40;99.90
18577;DHT22;9418;52.694;13.294;2023-12-04T15:15:23;-1.30;99.90
18577;DHT22;9418;52.694;13.294;2023-12-04T15:18:05;-1.40;99.90
18577;DHT22;9418;52.694;13.294;2023-12-04T15:20:45;-1.30;99.90
18577;DHT22;9418;52.694;13.294;2023-12-04T15:23:13;-1.40;99.90
18577;DHT22;9418;52.694;13.294;2023-12-04T15:25:39;-1.40;99.90
18577;DHT22;9418;52.694;13.294;2023-12-04T15:28:06;-1.40;99.90
18577;DHT22;9418;52.694;13.294;2023-12-04T15:30:34;-1.40;99.90
18577;DHT22;9418;52.694;13.294;2023-12-04T15:33:00;-1.40;99.90
18577;DHT22;9418;52.694;13.294;2023-12-04T15:35:27;-1.30;99.90